createdAt,value
2018-05-26T00:00:10.344Z,19.70
2018-05-26T00:00:43.418Z,19.80
2018-05-26T00:01:15.990Z,19.70
2018-05-26T00:01:49.203Z,19.80
2018-05-26T00:02:21.800Z,19.90
2018-05-26T00:02:54.317Z,19.80
2018-05-26T00:03:26.847Z,19.80
2018-05-26T00:04:00.377Z,19.80
2018-05-26T00:04:34.300Z,19.90
2018-05-26T00:05:06.930Z,19.80
2018-05-26T00:05:39.477Z,19.80
2018-05-26T00:06:11.984Z,19.90
2018-05-26T00:06:44.629Z,19.80
2018-05-26T00:07:17.351Z,19.80
2018-05-26T00:07:52.118Z,19.70
2018-05-26T00:08:25.512Z,19.70
2018-05-26T00:08:58.052Z,19.70
2018-05-26T00:09:30.790Z,19.70
2018-05-26T00:10:03.536Z,19.70
2018-05-26T00:10:36.321Z,19.70
2018-05-26T00:11:09.525Z,19.70
2018-05-26T00:11:43.898Z,19.60
2018-05-26T00:12:16.602Z,19.70
2018-05-26T00:12:49.588Z,19.60
2018-05-26T00:13:22.112Z,19.60
2018-05-26T00:13:54.700Z,19.60
2018-05-26T00:14:28.057Z,19.60
2018-05-26T00:15:00.761Z,19.70
2018-05-26T00:15:33.287Z,19.70
2018-05-26T00:16:06.881Z,19.70
2018-05-26T00:16:40.374Z,19.60
2018-05-26T00:17:13.541Z,19.60
2018-05-26T00:17:46.343Z,19.50
2018-05-26T00:18:19.646Z,19.50
2018-05-26T00:18:52.354Z,19.50
2018-05-26T00:19:25.380Z,19.50
2018-05-26T00:19:57.878Z,19.50
2018-05-26T00:20:31.145Z,19.40
2018-05-26T00:21:03.902Z,19.40
2018-05-26T00:21:37.693Z,19.50
2018-05-26T00:22:10.322Z,19.50
2018-05-26T00:22:48.479Z,19.50
2018-05-26T00:23:21.179Z,19.50
2018-05-26T00:23:54.039Z,19.40
2018-05-26T00:24:26.554Z,19.40
2018-05-26T00:24:59.366Z,19.40
2018-05-26T00:25:32.914Z,19.30
2018-05-26T00:26:05.650Z,19.30
2018-05-26T00:26:38.165Z,19.30
2018-05-26T00:27:10.953Z,19.30
2018-05-26T00:27:43.715Z,19.40
2018-05-26T00:28:17.670Z,19.40
2018-05-26T00:28:50.192Z,19.30
2018-05-26T00:29:23.401Z,19.40
2018-05-26T00:29:55.932Z,19.30
2018-05-26T00:30:29.283Z,19.30
2018-05-26T00:31:02.716Z,19.30
2018-05-26T00:31:35.408Z,19.30
2018-05-26T00:32:08.033Z,19.30
2018-05-26T00:32:40.646Z,19.30
2018-05-26T00:33:13.173Z,19.30
2018-05-26T00:33:46.945Z,19.30
2018-05-26T00:34:20.649Z,19.30
2018-05-26T00:34:55.428Z,19.40
2018-05-26T00:35:28.033Z,19.30
2018-05-26T00:36:00.600Z,19.40
2018-05-26T00:36:34.081Z,19.30
2018-05-26T00:37:06.936Z,19.30
2018-05-26T00:37:39.644Z,19.30
2018-05-26T00:38:12.201Z,19.30
2018-05-26T00:38:44.857Z,19.40
2018-05-26T00:39:17.557Z,19.30
2018-05-26T00:39:50.379Z,19.30
2018-05-26T00:40:22.902Z,19.40
2018-05-26T00:40:56.063Z,19.30
2018-05-26T00:41:29.171Z,19.30
2018-05-26T00:42:01.968Z,19.40
2018-05-26T00:42:35.233Z,19.40
2018-05-26T00:43:09.118Z,19.40
2018-05-26T00:43:42.649Z,19.30
2018-05-26T00:44:15.189Z,19.30
2018-05-26T00:44:47.711Z,19.40
2018-05-26T00:45:20.344Z,19.30
2018-05-26T00:45:52.894Z,19.40
2018-05-26T00:46:26.374Z,19.40
2018-05-26T00:46:58.912Z,19.40
2018-05-26T00:47:32.341Z,19.40
2018-05-26T00:48:04.867Z,19.40
2018-05-26T00:48:39.484Z,19.50
2018-05-26T00:49:12.050Z,19.50
2018-05-26T00:49:44.756Z,19.50
2018-05-26T00:50:19.501Z,19.50
2018-05-26T00:50:52.122Z,19.50
2018-05-26T00:51:24.683Z,19.50
2018-05-26T00:51:57.297Z,19.50
2018-05-26T00:52:29.816Z,19.50
2018-05-26T00:53:02.528Z,19.50
2018-05-26T00:53:35.285Z,19.50
2018-05-26T00:54:08.197Z,19.40
2018-05-26T00:54:41.679Z,19.40
2018-05-26T00:55:15.245Z,19.40
2018-05-26T00:55:48.071Z,19.40
2018-05-26T00:56:20.678Z,19.40
2018-05-26T00:56:54.040Z,19.30
2018-05-26T00:57:27.686Z,19.40
2018-05-26T00:58:01.078Z,19.40
2018-05-26T00:58:33.659Z,19.40
2018-05-26T00:59:07.202Z,19.40
2018-05-26T00:59:40.829Z,19.40
2018-05-26T01:00:13.396Z,19.30
2018-05-26T01:00:46.039Z,19.30
2018-05-26T01:01:19.541Z,19.30
2018-05-26T01:01:52.154Z,19.40
2018-05-26T01:02:24.855Z,19.30
2018-05-26T01:02:58.530Z,19.30
2018-05-26T01:03:32.371Z,19.30
2018-05-26T01:04:04.885Z,19.40
2018-05-26T01:04:38.320Z,19.40
2018-05-26T01:05:10.834Z,19.40
2018-05-26T01:05:43.452Z,19.40
2018-05-26T01:06:16.016Z,19.40
2018-05-26T01:06:49.684Z,19.40
2018-05-26T01:07:22.249Z,19.40
2018-05-26T01:07:54.815Z,19.40
2018-05-26T01:08:27.504Z,19.40
2018-05-26T01:09:02.047Z,19.40
2018-05-26T01:09:34.660Z,19.40
2018-05-26T01:10:07.171Z,19.40
2018-05-26T01:10:40.420Z,19.40
2018-05-26T01:11:14.092Z,19.40
2018-05-26T01:11:46.820Z,19.40
2018-05-26T01:12:19.522Z,19.40
2018-05-26T01:12:52.923Z,19.40
2018-05-26T01:13:26.260Z,19.40
2018-05-26T01:13:58.775Z,19.40
2018-05-26T01:14:31.708Z,19.40
2018-05-26T01:15:04.477Z,19.40
2018-05-26T01:15:37.755Z,19.40
2018-05-26T01:16:11.036Z,19.40
2018-05-26T01:16:43.848Z,19.40
2018-05-26T01:17:17.088Z,19.40
2018-05-26T01:17:49.613Z,19.40
2018-05-26T01:18:22.213Z,19.40
2018-05-26T01:18:54.803Z,19.40
2018-05-26T01:19:27.347Z,19.40
2018-05-26T01:19:59.874Z,19.40
2018-05-26T01:20:32.431Z,19.40
2018-05-26T01:21:05.723Z,19.40
2018-05-26T01:21:38.955Z,19.40
2018-05-26T01:22:12.717Z,19.40
2018-05-26T01:22:46.304Z,19.30
2018-05-26T01:23:19.005Z,19.30
2018-05-26T01:23:52.802Z,19.30
2018-05-26T01:24:26.405Z,19.30
2018-05-26T01:24:59.123Z,19.30
2018-05-26T01:25:31.646Z,19.20
2018-05-26T01:26:05.169Z,19.20
2018-05-26T01:26:37.853Z,19.30
2018-05-26T01:27:10.381Z,19.20
2018-05-26T01:27:43.054Z,19.20
2018-05-26T01:28:15.567Z,19.20
2018-05-26T01:28:48.144Z,19.10
2018-05-26T01:29:20.892Z,19.10
2018-05-26T01:29:53.653Z,19.20
2018-05-26T01:30:26.179Z,19.10
2018-05-26T01:30:58.716Z,19.10
2018-05-26T01:31:31.632Z,19.10
2018-05-26T01:32:04.305Z,19.10
2018-05-26T01:45:32.642Z,19.10
2018-05-26T01:46:05.943Z,18.90
2018-05-26T01:46:38.608Z,18.90
2018-05-26T01:47:11.528Z,18.90
2018-05-26T01:47:44.241Z,18.90
2018-05-26T01:48:17.106Z,18.90
2018-05-26T01:48:49.695Z,18.90
2018-05-26T01:49:22.392Z,18.80
2018-05-26T01:49:55.790Z,18.80
2018-05-26T01:50:28.433Z,18.80
2018-05-26T01:51:01.047Z,18.80
2018-05-26T01:51:33.565Z,18.70
2018-05-26T01:52:06.178Z,18.70
2018-05-26T01:52:38.698Z,18.70
2018-05-26T01:53:12.060Z,18.70
2018-05-26T01:53:45.112Z,18.70
2018-05-26T01:54:18.493Z,18.70
2018-05-26T01:54:51.224Z,18.70
2018-05-26T01:55:23.763Z,18.70
2018-05-26T01:55:56.308Z,18.70
2018-05-26T01:56:28.996Z,18.70
2018-05-26T01:57:01.637Z,18.70
2018-05-26T01:57:34.232Z,18.70
2018-05-26T01:58:06.761Z,18.70
2018-05-26T01:58:39.903Z,18.70
2018-05-26T01:59:12.472Z,18.70
2018-05-26T01:59:45.055Z,18.80
2018-05-26T02:00:17.584Z,18.80
2018-05-26T02:00:50.267Z,18.80
2018-05-26T02:01:22.926Z,18.80
2018-05-26T02:01:55.560Z,18.80
2018-05-26T02:02:28.158Z,18.80
2018-05-26T02:03:00.696Z,18.80
2018-05-26T02:03:33.983Z,18.80
2018-05-26T02:04:07.565Z,18.80
2018-05-26T02:04:40.274Z,18.80
2018-05-26T02:05:13.387Z,18.90
2018-05-26T02:05:45.976Z,18.90
2018-05-26T02:06:18.662Z,18.90
2018-05-26T02:06:51.371Z,18.90
2018-05-26T02:07:24.428Z,18.90
2018-05-26T02:07:57.178Z,18.90
2018-05-26T02:08:29.718Z,18.90
2018-05-26T02:09:02.265Z,18.90
2018-05-26T02:09:34.807Z,18.90
2018-05-26T02:10:07.344Z,18.90
2018-05-26T02:10:39.886Z,18.90
2018-05-26T02:11:12.539Z,18.90
2018-05-26T02:11:45.049Z,18.90
2018-05-26T02:12:17.581Z,18.90
2018-05-26T02:12:50.162Z,18.90
2018-05-26T02:13:22.670Z,18.90
2018-05-26T02:13:55.247Z,18.90
2018-05-26T02:14:27.772Z,18.90
2018-05-26T02:15:01.097Z,19.00
2018-05-26T02:15:33.640Z,18.90
2018-05-26T02:16:06.156Z,19.00
2018-05-26T02:16:38.665Z,19.00
2018-05-26T02:17:11.250Z,19.00
2018-05-26T02:17:43.792Z,19.00
2018-05-26T02:18:16.327Z,19.00
2018-05-26T02:18:48.990Z,19.00
2018-05-26T02:19:21.649Z,19.00
2018-05-26T02:19:54.190Z,19.00
2018-05-26T02:20:26.705Z,19.00
2018-05-26T02:20:59.228Z,19.00
2018-05-26T02:21:31.750Z,19.00
2018-05-26T02:22:04.288Z,18.90
2018-05-26T02:22:37.593Z,18.90
2018-05-26T02:23:10.118Z,18.90
2018-05-26T02:23:42.659Z,18.90
2018-05-26T02:24:16.042Z,18.80
2018-05-26T02:24:48.715Z,18.80
2018-05-26T02:25:21.252Z,18.80
2018-05-26T02:25:53.776Z,18.80
2018-05-26T02:26:27.185Z,18.80
2018-05-26T02:26:59.698Z,18.80
2018-05-26T02:27:32.214Z,18.70
2018-05-26T02:28:04.788Z,18.70
2018-05-26T02:28:37.309Z,18.70
2018-05-26T02:29:09.861Z,18.70
2018-05-26T02:29:42.394Z,18.70
2018-05-26T02:30:14.919Z,18.70
2018-05-26T02:30:47.447Z,18.60
2018-05-26T02:31:19.944Z,18.60
2018-05-26T02:31:52.849Z,18.60
2018-05-26T02:32:25.381Z,18.60
2018-05-26T02:32:57.891Z,18.60
2018-05-26T02:33:30.410Z,18.60
2018-05-26T02:34:02.940Z,18.60
2018-05-26T02:34:35.497Z,18.60
2018-05-26T02:35:08.026Z,18.60
2018-05-26T02:35:40.591Z,18.60
2018-05-26T02:36:13.224Z,18.60
2018-05-26T02:36:45.820Z,18.60
2018-05-26T02:37:18.481Z,18.60
2018-05-26T02:37:51.012Z,18.60
2018-05-26T02:38:23.525Z,18.50
2018-05-26T02:38:56.075Z,18.60
2018-05-26T02:39:28.612Z,18.60
2018-05-26T02:40:01.204Z,18.60
2018-05-26T02:40:33.734Z,18.60
2018-05-26T02:41:06.428Z,18.60
2018-05-26T02:41:39.295Z,18.60
2018-05-26T02:42:11.826Z,18.60
2018-05-26T02:42:44.735Z,18.60
2018-05-26T02:43:17.301Z,18.60
2018-05-26T02:43:49.862Z,18.60
2018-05-26T02:44:22.365Z,18.70
2018-05-26T02:44:54.886Z,18.70
2018-05-26T02:45:27.413Z,18.70
2018-05-26T02:45:59.971Z,18.70
2018-05-26T02:46:32.550Z,18.70
2018-05-26T02:47:05.071Z,18.70
2018-05-26T02:47:37.727Z,18.70
2018-05-26T02:48:10.232Z,18.70
2018-05-26T02:48:42.739Z,18.70
2018-05-26T02:49:15.425Z,18.70
2018-05-26T02:49:47.972Z,18.70
2018-05-26T02:50:20.491Z,18.70
2018-05-26T02:50:53.067Z,18.70
2018-05-26T02:51:25.715Z,18.80
2018-05-26T02:51:58.256Z,18.80
2018-05-26T02:52:30.775Z,18.70
2018-05-26T02:53:03.279Z,18.60
2018-05-26T02:53:35.814Z,18.50
2018-05-26T02:54:08.461Z,18.50
2018-05-26T02:54:40.998Z,18.50
2018-05-26T02:55:13.533Z,18.40
2018-05-26T02:55:46.063Z,18.30
2018-05-26T02:56:18.660Z,18.30
2018-05-26T02:56:51.180Z,18.30
2018-05-26T02:57:23.748Z,18.20
2018-05-26T02:57:56.282Z,18.20
2018-05-26T02:58:29.595Z,18.20
2018-05-26T02:59:02.153Z,18.20
2018-05-26T02:59:34.721Z,18.20
2018-05-26T03:00:07.247Z,18.20
2018-05-26T03:00:39.786Z,18.20
2018-05-26T03:01:12.300Z,18.20
2018-05-26T03:01:44.982Z,18.30
2018-05-26T03:02:17.503Z,18.30
2018-05-26T03:02:50.051Z,18.20
2018-05-26T03:03:22.568Z,18.20
2018-05-26T03:03:54.651Z,18.30
2018-05-26T03:04:33.123Z,18.30
2018-05-26T03:05:11.268Z,18.30
2018-05-26T03:05:49.463Z,18.30
2018-05-26T03:06:27.659Z,18.30
2018-05-26T03:07:06.647Z,18.30
2018-05-26T03:07:44.715Z,18.30
2018-05-26T03:08:22.808Z,18.30
2018-05-26T03:09:00.922Z,18.30
2018-05-26T03:09:39.049Z,18.30
2018-05-26T03:10:17.326Z,18.20
2018-05-26T03:10:55.584Z,18.20
2018-05-26T03:11:33.636Z,18.10
2018-05-26T03:12:12.732Z,18.10
2018-05-26T03:12:50.822Z,18.00
2018-05-26T03:13:29.055Z,18.00
2018-05-26T03:14:07.240Z,18.10
2018-05-26T03:14:45.486Z,18.00
2018-05-26T03:15:17.589Z,18.10
2018-05-26T03:15:51.356Z,18.10
2018-05-26T03:16:28.759Z,18.10
2018-05-26T03:17:01.483Z,18.10
2018-05-26T03:17:48.912Z,18.00
2018-05-26T03:19:07.843Z,18.00
2018-05-26T03:19:40.429Z,18.00
2018-05-26T03:20:12.948Z,18.10
2018-05-26T03:20:46.233Z,18.10
2018-05-26T03:21:18.768Z,18.10
2018-05-26T03:21:51.278Z,18.10
2018-05-26T03:22:23.789Z,18.20
2018-05-26T03:22:56.340Z,18.20
2018-05-26T03:23:29.014Z,18.20
2018-05-26T03:24:01.535Z,18.20
2018-05-26T03:24:34.066Z,18.20
2018-05-26T03:25:07.349Z,18.30
2018-05-26T03:25:39.874Z,18.30
2018-05-26T03:26:12.524Z,18.30
2018-05-26T03:26:45.051Z,18.30
2018-05-26T03:27:17.579Z,18.30
2018-05-26T03:27:50.113Z,18.30
2018-05-26T03:28:22.695Z,18.30
2018-05-26T03:28:55.224Z,18.40
2018-05-26T03:29:27.767Z,18.40
2018-05-26T03:30:01.059Z,18.40
2018-05-26T03:30:33.735Z,18.30
2018-05-26T03:31:06.264Z,18.30
2018-05-26T03:31:38.769Z,18.40
2018-05-26T03:32:11.297Z,18.40
2018-05-26T03:32:43.995Z,18.40
2018-05-26T03:33:16.523Z,18.30
2018-05-26T03:33:49.054Z,18.30
2018-05-26T03:34:21.594Z,18.30
2018-05-26T03:34:54.131Z,18.20
2018-05-26T03:35:26.636Z,18.20
2018-05-26T03:35:59.160Z,18.20
2018-05-26T03:36:31.689Z,18.20
2018-05-26T03:37:04.196Z,18.20
2018-05-26T03:37:36.713Z,18.20
2018-05-26T03:38:09.245Z,18.20
2018-05-26T03:38:41.764Z,18.20
2018-05-26T03:39:14.322Z,18.20
2018-05-26T03:39:46.837Z,18.20
2018-05-26T03:40:19.375Z,18.20
2018-05-26T03:40:52.127Z,18.20
2018-05-26T03:41:24.832Z,18.20
2018-05-26T03:41:57.395Z,18.20
2018-05-26T03:42:29.944Z,18.20
2018-05-26T03:43:02.468Z,18.20
2018-05-26T03:43:34.989Z,18.20
2018-05-26T03:44:07.514Z,18.20
2018-05-26T03:44:40.077Z,18.20
2018-05-26T03:45:12.604Z,18.30
2018-05-26T03:45:45.132Z,18.30
2018-05-26T03:46:17.663Z,18.30
2018-05-26T03:46:50.181Z,18.40
2018-05-26T03:47:22.696Z,18.40
2018-05-26T03:47:55.227Z,18.40
2018-05-26T03:48:27.806Z,18.40
2018-05-26T03:49:01.104Z,18.50
2018-05-26T03:49:33.634Z,18.40
2018-05-26T03:50:06.977Z,18.50
2018-05-26T03:50:39.525Z,18.50
2018-05-26T03:51:12.046Z,18.50
2018-05-26T03:51:44.566Z,18.50
2018-05-26T03:52:17.219Z,18.50
2018-05-26T03:52:49.751Z,18.60
2018-05-26T03:53:22.973Z,18.60
2018-05-26T03:53:55.507Z,18.60
2018-05-26T03:54:40.011Z,18.60
2018-05-26T03:55:33.328Z,18.60
2018-05-26T03:56:17.649Z,18.60
2018-05-26T03:57:01.874Z,18.60
2018-05-26T03:57:46.219Z,18.60
2018-05-26T03:58:30.421Z,18.70
2018-05-26T03:59:15.621Z,18.70
2018-05-26T04:00:11.866Z,18.70
2018-05-26T04:00:44.441Z,18.70
2018-05-26T04:01:16.956Z,18.70
2018-05-26T04:01:49.533Z,18.70
2018-05-26T04:02:22.058Z,18.70
2018-05-26T04:02:54.786Z,18.70
2018-05-26T04:03:27.376Z,18.70
2018-05-26T04:03:59.877Z,18.80
2018-05-26T04:04:33.169Z,18.80
2018-05-26T04:05:05.691Z,18.80
2018-05-26T04:05:38.213Z,18.80
2018-05-26T04:06:10.848Z,18.80
2018-05-26T04:06:43.370Z,18.80
2018-05-26T04:07:15.889Z,18.80
2018-05-26T04:07:48.427Z,18.90
2018-05-26T04:08:20.951Z,18.90
2018-05-26T04:08:53.459Z,18.90
2018-05-26T04:09:25.977Z,18.90
2018-05-26T04:09:58.543Z,18.90
2018-05-26T04:10:31.043Z,18.90
2018-05-26T04:11:03.570Z,18.90
2018-05-26T04:11:36.109Z,18.90
2018-05-26T04:12:08.720Z,19.00
2018-05-26T04:12:41.267Z,19.00
2018-05-26T04:13:13.801Z,19.00
2018-05-26T04:13:46.337Z,19.00
2018-05-26T04:14:18.867Z,19.10
2018-05-26T04:14:51.393Z,19.10
2018-05-26T04:15:23.924Z,19.10
2018-05-26T04:15:56.493Z,19.10
2018-05-26T04:16:29.020Z,19.10
2018-05-26T04:17:01.855Z,19.10
2018-05-26T04:17:34.489Z,19.20
2018-05-26T04:18:07.091Z,19.10
2018-05-26T04:18:39.883Z,19.20
2018-05-26T04:19:12.396Z,19.20
2018-05-26T04:19:44.909Z,19.20
2018-05-26T04:20:17.476Z,19.20
2018-05-26T04:20:50.032Z,19.20
2018-05-26T04:21:22.631Z,19.20
2018-05-26T04:21:55.158Z,19.10
2018-05-26T04:22:27.676Z,19.10
2018-05-26T04:23:00.966Z,19.10
2018-05-26T04:23:33.496Z,19.00
2018-05-26T04:24:06.026Z,19.00
2018-05-26T04:24:38.788Z,18.90
2018-05-26T04:25:11.343Z,18.90
2018-05-26T04:25:43.903Z,18.90
2018-05-26T04:26:16.430Z,18.90
2018-05-26T04:26:48.977Z,18.90
2018-05-26T04:27:21.505Z,18.90
2018-05-26T04:27:54.036Z,18.90
2018-05-26T04:28:26.609Z,18.90
2018-05-26T04:28:59.132Z,18.90
2018-05-26T04:29:31.656Z,18.90
2018-05-26T04:30:04.197Z,18.90
2018-05-26T04:30:36.724Z,18.90
2018-05-26T04:31:09.247Z,18.90
2018-05-26T04:31:41.773Z,18.80
2018-05-26T04:32:14.324Z,18.80
2018-05-26T04:32:46.839Z,18.90
2018-05-26T04:33:19.361Z,18.90
2018-05-26T04:33:51.892Z,18.90
2018-05-26T04:34:24.425Z,18.90
2018-05-26T04:34:57.022Z,19.00
2018-05-26T04:35:29.597Z,18.90
2018-05-26T04:36:02.152Z,18.90
2018-05-26T04:36:34.681Z,18.90
2018-05-26T04:37:07.237Z,18.90
2018-05-26T04:37:39.788Z,18.90
2018-05-26T04:38:12.309Z,18.90
2018-05-26T04:38:44.891Z,18.90
2018-05-26T04:39:17.429Z,18.90
2018-05-26T04:39:49.945Z,19.00
2018-05-26T04:40:22.462Z,19.00
2018-05-26T04:40:55.016Z,18.90
2018-05-26T04:41:27.609Z,18.90
2018-05-26T04:42:00.318Z,18.90
2018-05-26T04:42:32.838Z,18.90
2018-05-26T04:43:06.114Z,18.90
2018-05-26T04:43:38.656Z,18.80
2018-05-26T04:44:11.185Z,18.90
2018-05-26T04:44:43.787Z,18.80
2018-05-26T04:45:16.427Z,18.80
2018-05-26T04:45:48.940Z,18.80
2018-05-26T04:46:21.451Z,18.90
2018-05-26T04:46:53.963Z,18.90
2018-05-26T04:47:26.492Z,18.80
2018-05-26T04:47:59.024Z,18.90
2018-05-26T04:48:31.551Z,18.80
2018-05-26T04:49:04.077Z,18.80
2018-05-26T04:49:37.524Z,18.90
2018-05-26T04:50:10.116Z,18.80
2018-05-26T04:50:42.645Z,18.90
2018-05-26T04:51:15.225Z,18.80
2018-05-26T04:51:47.752Z,18.90
2018-05-26T04:52:20.417Z,18.80
2018-05-26T04:52:53.112Z,18.80
2018-05-26T04:53:25.668Z,18.90
2018-05-26T04:53:58.954Z,18.80
2018-05-26T04:54:31.514Z,18.80
2018-05-26T04:55:04.053Z,18.90
2018-05-26T04:55:37.562Z,18.90
2018-05-26T04:56:10.073Z,18.90
2018-05-26T04:56:42.608Z,19.00
2018-05-26T04:57:15.148Z,19.00
2018-05-26T04:57:47.777Z,19.00
2018-05-26T04:58:20.509Z,19.10
2018-05-26T04:58:53.023Z,19.00
2018-05-26T04:59:26.405Z,18.90
2018-05-26T04:59:58.948Z,19.00
2018-05-26T05:00:31.517Z,18.90
2018-05-26T05:01:04.060Z,19.00
2018-05-26T05:01:36.583Z,18.90
2018-05-26T05:02:09.892Z,18.90
2018-05-26T05:02:42.436Z,18.80
2018-05-26T05:03:15.074Z,18.80
2018-05-26T05:03:47.996Z,18.80
2018-05-26T05:04:20.518Z,18.80
2018-05-26T05:04:53.036Z,18.80
2018-05-26T05:05:25.572Z,18.80
2018-05-26T05:05:58.126Z,18.80
2018-05-26T05:06:30.726Z,18.80
2018-05-26T05:07:03.236Z,18.80
2018-05-26T05:07:35.741Z,18.80
2018-05-26T05:08:08.393Z,18.80
2018-05-26T05:08:41.026Z,18.80
2018-05-26T05:09:13.567Z,18.80
2018-05-26T05:09:46.137Z,18.80
2018-05-26T05:10:18.672Z,18.80
2018-05-26T05:10:51.202Z,18.90
2018-05-26T05:11:23.742Z,18.90
2018-05-26T05:11:56.247Z,18.90
2018-05-26T05:12:28.820Z,19.00
2018-05-26T05:13:01.370Z,19.00
2018-05-26T05:13:34.064Z,19.00
2018-05-26T05:14:06.738Z,19.00
2018-05-26T05:14:39.265Z,19.10
2018-05-26T05:15:12.075Z,19.10
2018-05-26T05:15:44.623Z,19.10
2018-05-26T05:16:17.228Z,19.20
2018-05-26T05:16:50.531Z,19.30
2018-05-26T05:17:23.811Z,19.30
2018-05-26T05:17:56.355Z,19.40
2018-05-26T05:18:28.877Z,19.30
2018-05-26T05:19:01.413Z,19.40
2018-05-26T05:19:33.940Z,19.40
2018-05-26T05:20:06.465Z,19.40
2018-05-26T05:20:39.154Z,19.40
2018-05-26T05:21:11.852Z,19.50
2018-05-26T05:21:44.384Z,19.50
2018-05-26T05:22:17.115Z,19.50
2018-05-26T05:22:49.651Z,19.50
2018-05-26T05:23:22.938Z,19.50
2018-05-26T05:23:55.523Z,19.50
2018-05-26T05:24:28.033Z,19.50
2018-05-26T05:25:00.564Z,19.60
2018-05-26T05:25:33.105Z,19.60
2018-05-26T05:26:05.622Z,19.60
2018-05-26T05:26:38.147Z,19.60
2018-05-26T05:27:10.697Z,19.70
2018-05-26T05:27:43.434Z,19.70
2018-05-26T05:28:16.048Z,19.70
2018-05-26T05:28:48.618Z,19.70
2018-05-26T05:29:21.164Z,19.60
2018-05-26T05:29:53.835Z,19.60
2018-05-26T05:30:26.694Z,19.50
2018-05-26T05:30:59.271Z,19.50
2018-05-26T05:31:31.802Z,19.50
2018-05-26T05:32:04.353Z,19.50
2018-05-26T05:32:36.943Z,19.60
2018-05-26T05:33:09.836Z,19.60
2018-05-26T05:33:42.379Z,19.60
2018-05-26T05:34:14.932Z,19.60
2018-05-26T05:34:47.488Z,19.60
2018-05-26T05:35:20.015Z,19.50
2018-05-26T05:35:52.549Z,19.60
2018-05-26T05:36:25.113Z,19.60
2018-05-26T05:36:57.698Z,19.60
2018-05-26T05:37:30.263Z,19.60
2018-05-26T05:38:02.805Z,19.60
2018-05-26T05:38:35.372Z,19.70
2018-05-26T05:39:07.908Z,19.80
2018-05-26T05:39:40.427Z,19.80
2018-05-26T05:40:12.937Z,19.90
2018-05-26T05:40:46.229Z,20.00
2018-05-26T05:41:18.774Z,20.00
2018-05-26T05:41:51.296Z,20.00
2018-05-26T05:42:23.832Z,20.00
2018-05-26T05:42:56.326Z,20.10
2018-05-26T05:43:28.847Z,20.10
2018-05-26T05:44:01.595Z,20.20
2018-05-26T05:44:34.198Z,20.20
2018-05-26T05:45:06.715Z,20.20
2018-05-26T05:45:39.247Z,20.30
2018-05-26T05:46:11.770Z,20.30
2018-05-26T05:46:44.299Z,20.40
2018-05-26T05:47:17.295Z,20.40
2018-05-26T05:47:49.818Z,20.40
2018-05-26T05:48:22.339Z,20.40
2018-05-26T05:48:54.876Z,20.40
2018-05-26T05:49:28.181Z,20.40
2018-05-26T05:50:00.704Z,20.40
2018-05-26T05:50:33.294Z,20.40
2018-05-26T05:51:05.984Z,20.50
2018-05-26T05:51:38.548Z,20.50
2018-05-26T05:52:11.075Z,20.50
2018-05-26T05:52:43.624Z,20.50
2018-05-26T05:53:17.001Z,20.50
2018-05-26T05:53:49.539Z,20.50
2018-05-26T05:54:22.072Z,20.60
2018-05-26T05:54:54.596Z,20.60
2018-05-26T05:55:27.133Z,20.70
2018-05-26T05:55:59.649Z,20.70
2018-05-26T05:56:32.252Z,20.80
2018-05-26T05:57:04.788Z,20.80
2018-05-26T05:57:37.326Z,20.80
2018-05-26T05:58:10.242Z,20.80
2018-05-26T05:58:42.862Z,20.90
2018-05-26T05:59:15.386Z,20.90
2018-05-26T05:59:47.935Z,21.00
2018-05-26T06:00:20.653Z,21.00
2018-05-26T06:00:53.216Z,21.10
2018-05-26T06:01:26.857Z,21.10
2018-05-26T06:01:59.421Z,21.20
2018-05-26T06:02:32.117Z,21.20
2018-05-26T06:03:04.645Z,21.20
2018-05-26T06:03:37.273Z,21.20
2018-05-26T06:04:09.886Z,21.30
2018-05-26T06:04:42.417Z,21.30
2018-05-26T06:05:14.964Z,21.30
2018-05-26T06:05:47.503Z,21.20
2018-05-26T06:06:20.040Z,21.30
2018-05-26T06:06:52.564Z,21.30
2018-05-26T06:07:25.844Z,21.20
2018-05-26T06:07:59.061Z,21.20
2018-05-26T06:08:32.360Z,21.10
2018-05-26T06:09:05.829Z,21.00
2018-05-26T06:09:38.375Z,21.00
2018-05-26T06:10:10.908Z,20.90
2018-05-26T06:10:43.491Z,20.90
2018-05-26T06:11:16.020Z,20.90
2018-05-26T06:11:49.457Z,20.90
2018-05-26T06:12:22.397Z,20.90
2018-05-26T06:12:55.076Z,20.90
2018-05-26T06:13:28.789Z,20.90
2018-05-26T06:14:01.311Z,20.90
2018-05-26T06:14:34.377Z,20.90
2018-05-26T06:15:07.085Z,20.90
2018-05-26T06:15:40.436Z,21.00
2018-05-26T06:16:13.035Z,21.00
2018-05-26T06:16:45.573Z,21.00
2018-05-26T06:17:18.205Z,21.00
2018-05-26T06:17:50.754Z,21.00
2018-05-26T06:18:23.268Z,21.00
2018-05-26T06:18:55.789Z,20.90
2018-05-26T06:19:28.942Z,21.00
2018-05-26T06:20:01.675Z,21.00
2018-05-26T06:20:34.223Z,21.10
2018-05-26T06:21:06.752Z,21.10
2018-05-26T06:21:39.313Z,21.10
2018-05-26T06:22:11.865Z,21.20
2018-05-26T06:22:44.411Z,21.30
2018-05-26T06:23:16.939Z,21.30
2018-05-26T06:23:49.476Z,21.30
2018-05-26T06:24:22.065Z,21.30
2018-05-26T06:24:54.715Z,21.30
2018-05-26T06:25:27.888Z,21.40
2018-05-26T06:26:01.035Z,21.40
2018-05-26T06:26:33.558Z,21.50
2018-05-26T06:27:06.849Z,21.60
2018-05-26T06:27:39.398Z,21.60
2018-05-26T06:28:11.965Z,21.70
2018-05-26T06:28:44.491Z,21.70
2018-05-26T06:29:17.027Z,21.80
2018-05-26T06:29:49.553Z,21.80
2018-05-26T06:30:22.445Z,21.90
2018-05-26T06:30:55.086Z,21.90
2018-05-26T06:31:27.917Z,21.90
2018-05-26T06:32:00.453Z,21.90
2018-05-26T06:32:33.199Z,22.00
2018-05-26T06:33:05.759Z,22.00
2018-05-26T06:33:39.352Z,22.10
2018-05-26T06:34:12.061Z,22.10
2018-05-26T06:34:44.594Z,22.20
2018-05-26T06:35:17.324Z,22.30
2018-05-26T06:35:49.857Z,22.30
2018-05-26T06:36:23.648Z,22.30
2018-05-26T06:36:56.246Z,22.30
2018-05-26T06:37:29.462Z,22.30
2018-05-26T06:38:02.276Z,22.40
2018-05-26T06:38:35.165Z,22.30
2018-05-26T06:39:07.713Z,22.30
2018-05-26T06:39:40.811Z,22.30
2018-05-26T06:40:13.386Z,22.30
2018-05-26T06:40:46.173Z,22.30
2018-05-26T06:41:18.749Z,22.40
2018-05-26T06:41:52.385Z,22.40
2018-05-26T06:42:24.897Z,22.40
2018-05-26T06:42:59.352Z,22.40
2018-05-26T06:43:31.868Z,22.40
2018-05-26T06:44:05.203Z,22.50
2018-05-26T06:44:37.712Z,22.50
2018-05-26T06:45:10.241Z,22.50
2018-05-26T06:45:42.748Z,22.60
2018-05-26T06:46:16.039Z,22.60
2018-05-26T06:46:48.721Z,22.70
2018-05-26T06:47:21.477Z,22.70
2018-05-26T06:47:54.013Z,22.80
2018-05-26T06:48:26.719Z,22.90
2018-05-26T06:48:59.241Z,22.90
2018-05-26T06:49:32.156Z,23.00
2018-05-26T06:50:04.677Z,23.00
2018-05-26T06:50:37.194Z,23.00
2018-05-26T06:51:09.710Z,23.10
2018-05-26T06:51:42.311Z,23.20
2018-05-26T06:52:14.850Z,23.20
2018-05-26T06:52:47.466Z,23.30
2018-05-26T06:53:19.998Z,23.30
2018-05-26T06:53:52.552Z,23.30
2018-05-26T06:54:25.098Z,23.30
2018-05-26T06:54:57.653Z,23.40
2018-05-26T06:55:30.188Z,23.40
2018-05-26T06:56:02.779Z,23.50
2018-05-26T06:56:35.484Z,23.60
2018-05-26T06:57:08.201Z,23.60
2018-05-26T06:57:40.747Z,23.70
2018-05-26T06:58:13.290Z,23.70
2018-05-26T06:58:46.353Z,23.80
2018-05-26T06:59:18.900Z,23.80
2018-05-26T06:59:51.483Z,23.90
2018-05-26T07:00:24.070Z,23.90
2018-05-26T07:00:56.608Z,24.10
2018-05-26T07:01:29.155Z,24.10
2018-05-26T07:02:01.681Z,24.20
2018-05-26T07:02:34.246Z,24.30
2018-05-26T07:03:06.788Z,24.30
2018-05-26T07:03:39.329Z,24.40
2018-05-26T07:04:11.866Z,24.50
2018-05-26T07:04:45.337Z,24.50
2018-05-26T07:05:19.272Z,24.60
2018-05-26T07:05:51.835Z,24.70
2018-05-26T07:06:25.466Z,24.70
2018-05-26T07:06:57.988Z,24.70
2018-05-26T07:07:30.575Z,24.70
2018-05-26T07:08:03.106Z,24.80
2018-05-26T07:08:35.735Z,24.80
2018-05-26T07:09:08.288Z,24.80
2018-05-26T07:09:40.803Z,24.80
2018-05-26T07:10:13.789Z,24.80
2018-05-26T07:10:46.296Z,24.90
2018-05-26T07:11:19.010Z,24.90
2018-05-26T07:11:51.568Z,25.00
2018-05-26T07:12:24.098Z,25.00
2018-05-26T07:12:56.606Z,25.10
2018-05-26T07:13:29.921Z,25.20
2018-05-26T07:14:02.505Z,25.30
2018-05-26T07:14:35.042Z,25.40
2018-05-26T07:15:07.628Z,25.40
2018-05-26T07:15:40.171Z,25.50
2018-05-26T07:16:12.726Z,25.60
2018-05-26T07:16:45.493Z,25.70
2018-05-26T07:17:18.036Z,25.60
2018-05-26T07:38:53.273Z,26.00
2018-05-26T07:39:25.843Z,26.00
2018-05-26T07:39:58.367Z,25.90